createdAt,value
2023-04-16T00:01:54.891Z,7.10
2023-04-16T00:04:21.668Z,7.63
2023-04-16T00:06:48.302Z,8.10
2023-04-16T00:09:14.946Z,6.75
2023-04-16T00:11:41.506Z,7.93
2023-04-16T00:14:08.299Z,8.07
2023-04-16T00:16:35.015Z,7.20
2023-04-16T00:19:01.738Z,8.40
2023-04-16T00:21:28.453Z,7.80
2023-04-16T00:23:55.139Z,8.38
2023-04-16T00:26:21.700Z,8.68
2023-04-16T00:28:48.457Z,8.35
2023-04-16T00:31:15.325Z,7.60
2023-04-16T00:33:42.102Z,8.85
2023-04-16T00:36:09.454Z,8.85
2023-04-16T00:38:36.833Z,8.63
2023-04-16T00:41:03.474Z,9.00
2023-04-16T00:43:31.612Z,8.43
2023-04-16T00:45:58.832Z,8.20
2023-04-16T00:48:27.974Z,8.38
2023-04-16T00:50:55.491Z,7.50
2023-04-16T00:53:22.529Z,8.15
2023-04-16T00:55:49.253Z,8.20
2023-04-16T00:58:16.438Z,8.10
2023-04-16T01:00:43.114Z,7.90
2023-04-16T01:03:10.391Z,8.50
2023-04-16T01:05:37.503Z,7.18
2023-04-16T01:08:04.325Z,8.45
2023-04-16T01:10:30.912Z,7.75
2023-04-16T01:12:57.524Z,8.30
2023-04-16T01:15:24.189Z,8.95
2023-04-16T01:17:51.088Z,7.70
2023-04-16T01:20:17.901Z,7.95
2023-04-16T01:22:44.664Z,8.07
2023-04-16T01:25:15.653Z,7.35
2023-04-16T01:27:42.426Z,8.40
2023-04-16T01:30:09.332Z,7.95
2023-04-16T01:32:36.073Z,8.50
2023-04-16T01:35:02.912Z,7.90
2023-04-16T01:37:30.587Z,7.68
2023-04-16T01:39:57.543Z,8.32
2023-04-16T01:42:24.168Z,8.10
2023-04-16T01:44:50.911Z,8.82
2023-04-16T01:47:18.138Z,8.38
2023-04-16T01:49:45.657Z,8.65
2023-04-16T01:52:12.685Z,8.95
2023-04-16T01:54:39.448Z,8.02
2023-04-16T01:57:06.016Z,8.70
2023-04-16T01:59:32.580Z,8.48
2023-04-16T02:02:12.601Z,8.43
2023-04-16T02:04:40.745Z,8.70
2023-04-16T02:07:08.563Z,9.25
2023-04-16T02:09:40.231Z,9.13
2023-04-16T02:12:07.429Z,8.90
2023-04-16T02:14:35.301Z,8.82
2023-04-16T02:17:01.894Z,8.40
2023-04-16T02:19:29.105Z,8.32
2023-04-16T02:21:55.689Z,8.40
2023-04-16T02:24:22.324Z,8.70
2023-04-16T02:26:49.047Z,8.32
2023-04-16T02:29:16.424Z,8.63
2023-04-16T02:31:43.344Z,8.90
2023-04-16T02:34:10.090Z,8.68
2023-04-16T02:36:36.924Z,8.93
2023-04-16T02:39:04.494Z,9.63
2023-04-16T02:41:31.119Z,8.57
2023-04-16T02:43:57.866Z,8.05
2023-04-16T02:46:24.696Z,8.15
2023-04-16T02:48:51.550Z,8.80
2023-04-16T02:51:18.283Z,9.20
2023-04-16T02:53:46.038Z,9.52
2023-04-16T02:56:13.018Z,8.48
2023-04-16T02:58:39.828Z,8.90
2023-04-16T03:01:06.668Z,9.52
2023-04-16T03:03:33.218Z,8.90
2023-04-16T03:05:59.798Z,9.18
2023-04-16T03:08:26.530Z,8.98
2023-04-16T03:10:53.235Z,9.43
2023-04-16T03:13:19.910Z,9.38
2023-04-16T03:15:50.087Z,8.75
2023-04-16T03:18:16.932Z,9.35
2023-04-16T03:20:43.704Z,8.70
2023-04-16T03:23:10.267Z,8.98
2023-04-16T03:25:36.929Z,8.93
2023-04-16T03:28:03.948Z,8.88
2023-04-16T03:30:30.672Z,8.77
2023-04-16T03:32:57.326Z,10.18
2023-04-16T03:35:23.911Z,9.20
2023-04-16T03:37:51.707Z,9.65
2023-04-16T03:40:18.373Z,9.25
2023-04-16T03:42:44.946Z,9.63
2023-04-16T03:45:11.610Z,10.40
2023-04-16T03:47:38.393Z,10.32
2023-04-16T03:50:05.495Z,10.10
2023-04-16T03:52:32.139Z,9.88
2023-04-16T03:54:58.844Z,9.43
2023-04-16T03:57:25.444Z,10.00
2023-04-16T03:59:52.057Z,9.80
2023-04-16T04:02:18.778Z,9.73
2023-04-16T04:04:45.516Z,10.43
2023-04-16T04:07:12.133Z,9.93
2023-04-16T04:09:38.814Z,10.43
2023-04-16T04:12:05.456Z,10.55
2023-04-16T04:14:32.307Z,9.98
2023-04-16T04:16:59.071Z,9.23
2023-04-16T04:19:25.807Z,9.43
2023-04-16T04:21:52.392Z,9.20
2023-04-16T04:24:19.123Z,9.20
2023-04-16T04:26:45.942Z,9.50
2023-04-16T04:29:13.989Z,9.30
2023-04-16T04:31:41.049Z,9.60
2023-04-16T04:34:07.887Z,9.50
2023-04-16T04:36:34.593Z,9.50
2023-04-16T04:39:01.249Z,8.93
2023-04-16T04:41:27.908Z,8.98
2023-04-16T04:43:54.639Z,9.38
2023-04-16T04:46:21.480Z,9.20
2023-04-16T04:48:48.456Z,9.63
2023-04-16T04:51:15.188Z,9.27
2023-04-16T04:53:42.036Z,10.00
2023-04-16T04:56:12.830Z,9.52
2023-04-16T04:58:41.073Z,9.65
2023-04-16T05:01:07.850Z,8.98
2023-04-16T05:03:34.801Z,9.32
2023-04-16T05:06:01.601Z,8.77
2023-04-16T05:08:28.377Z,8.27
2023-04-16T05:10:55.119Z,8.65
2023-04-16T05:13:22.021Z,8.23
2023-04-16T05:15:48.644Z,8.48
2023-04-16T05:18:15.692Z,8.52
2023-04-16T05:20:42.408Z,8.10
2023-04-16T05:23:08.996Z,8.65
2023-04-16T05:25:35.705Z,7.55
2023-04-16T05:28:02.418Z,7.10
2023-04-16T05:30:29.243Z,7.20
2023-04-16T05:32:56.042Z,7.13
2023-04-16T05:35:22.849Z,7.68
2023-04-16T05:37:49.589Z,6.72
2023-04-16T05:40:16.313Z,6.40
2023-04-16T05:42:42.914Z,6.93
2023-04-16T05:45:10.818Z,6.65
2023-04-16T05:47:37.444Z,6.65
2023-04-16T05:50:04.386Z,6.90
2023-04-16T05:52:31.071Z,7.80
2023-04-16T05:55:01.239Z,7.30
2023-04-16T05:57:30.680Z,6.95
2023-04-16T05:59:57.271Z,6.72
2023-04-16T06:02:24.044Z,7.57
2023-04-16T06:04:50.884Z,7.45
2023-04-16T06:07:17.621Z,8.07
2023-04-16T06:09:45.151Z,7.75
2023-04-16T06:12:13.060Z,8.13
2023-04-16T06:14:39.853Z,8.77
2023-04-16T06:17:06.626Z,10.50
2023-04-16T06:19:33.469Z,12.10
2023-04-16T06:22:00.524Z,13.43
2023-04-16T06:24:27.353Z,9.75
2023-04-16T06:26:54.539Z,9.30
2023-04-16T06:29:22.531Z,9.80
2023-04-16T06:31:52.683Z,9.93
2023-04-16T06:34:19.384Z,11.70
2023-04-16T06:36:46.077Z,11.25
2023-04-16T06:39:13.777Z,10.25
2023-04-16T06:41:40.456Z,38.97
2023-04-16T06:44:07.114Z,20.05
2023-04-16T06:46:34.047Z,50.10
2023-04-16T06:49:00.887Z,18.92
2023-04-16T06:51:27.690Z,14.10
2023-04-16T06:53:54.633Z,13.43
2023-04-16T06:56:21.316Z,9.73
2023-04-16T06:58:48.257Z,8.52
2023-04-16T07:01:14.971Z,9.82
2023-04-16T07:03:41.860Z,10.20
2023-04-16T07:06:08.866Z,8.98
2023-04-16T07:08:35.792Z,11.75
2023-04-16T07:11:02.812Z,11.73
2023-04-16T07:13:29.454Z,10.25
2023-04-16T07:15:56.066Z,8.13
2023-04-16T07:18:22.753Z,8.52
2023-04-16T07:20:49.464Z,8.50
2023-04-16T07:23:16.057Z,8.90
2023-04-16T07:25:42.757Z,11.75
2023-04-16T07:28:09.486Z,9.60
2023-04-16T07:30:36.676Z,10.38
2023-04-16T07:33:03.976Z,9.90
2023-04-16T07:35:31.776Z,9.27
2023-04-16T07:37:58.415Z,9.27
2023-04-16T07:40:25.134Z,9.65
2023-04-16T07:42:52.334Z,9.50
2023-04-16T07:45:19.345Z,10.02
2023-04-16T07:47:45.983Z,9.93
2023-04-16T07:50:13.080Z,10.65
2023-04-16T07:52:41.337Z,10.50
2023-04-16T07:55:11.175Z,10.77
2023-04-16T07:57:37.874Z,10.40
2023-04-16T08:00:05.136Z,10.57
2023-04-16T08:02:32.391Z,10.25
2023-04-16T08:04:59.710Z,10.00
2023-04-16T08:07:26.485Z,10.70
2023-04-16T08:09:53.510Z,10.02
2023-04-16T08:12:20.952Z,10.55
2023-04-16T08:14:48.114Z,9.75
2023-04-16T08:17:16.092Z,9.88
2023-04-16T08:19:45.040Z,10.68
2023-04-16T08:22:12.614Z,10.80
2023-04-16T08:24:39.567Z,10.90
2023-04-16T08:27:17.826Z,16.15
2023-04-16T08:29:46.234Z,30.83
2023-04-16T08:32:13.146Z,16.02
2023-04-16T08:34:39.772Z,11.43
2023-04-16T08:37:06.384Z,11.32
2023-04-16T08:39:33.091Z,12.55
2023-04-16T08:42:04.500Z,10.60
2023-04-16T08:44:41.513Z,10.60
2023-04-16T08:47:11.516Z,10.57
2023-04-16T08:49:48.453Z,10.75
2023-04-16T08:52:19.476Z,10.45
2023-04-16T08:55:11.281Z,9.98
2023-04-16T08:57:44.454Z,10.25
2023-04-16T09:00:12.065Z,10.18
2023-04-16T09:02:39.388Z,10.02
2023-04-16T09:05:07.597Z,9.90
2023-04-16T09:07:34.773Z,10.40
2023-04-16T09:10:01.610Z,10.32
2023-04-16T09:12:28.435Z,10.77
2023-04-16T09:14:56.896Z,10.10
2023-04-16T09:17:23.620Z,10.15
2023-04-16T09:19:50.424Z,10.00
2023-04-16T09:22:17.245Z,9.88
2023-04-16T09:24:43.896Z,10.30
2023-04-16T09:27:12.411Z,15.95
2023-04-16T09:29:41.232Z,12.57
2023-04-16T09:32:12.068Z,11.13
2023-04-16T09:35:02.841Z,10.05
2023-04-16T09:37:31.001Z,11.63
2023-04-16T09:40:03.619Z,11.02
2023-04-16T09:42:36.103Z,11.27
2023-04-16T09:45:05.775Z,11.20
2023-04-16T09:47:41.460Z,11.88
2023-04-16T09:52:39.121Z,10.65
2023-04-16T09:55:06.541Z,11.30
2023-04-16T09:57:33.400Z,10.15
2023-04-16T10:00:05.837Z,11.32
2023-04-16T10:02:34.432Z,10.93
2023-04-16T10:05:03.155Z,11.20
2023-04-16T10:07:33.661Z,10.48
2023-04-16T10:10:00.617Z,10.48
2023-04-16T10:12:28.728Z,10.70
2023-04-16T10:14:55.511Z,11.18
2023-04-16T10:17:23.612Z,11.27
2023-04-16T10:19:51.268Z,11.05
2023-04-16T10:22:18.029Z,10.93
2023-04-16T10:24:47.663Z,11.27
2023-04-16T10:27:14.416Z,10.95
2023-04-16T10:29:41.299Z,10.98
2023-04-16T10:32:08.264Z,13.18
2023-04-16T10:34:35.916Z,15.40
2023-04-16T10:37:02.697Z,11.23
2023-04-16T10:39:29.514Z,22.70
2023-04-16T10:42:12.996Z,12.90
2023-04-16T10:44:42.795Z,16.00
2023-04-16T10:47:13.223Z,42.38
2023-04-16T10:49:41.104Z,12.82
2023-04-16T10:52:14.806Z,27.80
2023-04-16T10:54:41.787Z,19.42
2023-04-16T10:57:10.386Z,21.98
2023-04-16T10:59:38.400Z,18.02
2023-04-16T11:02:12.914Z,18.17
2023-04-16T11:04:42.731Z,20.48
2023-04-16T11:07:15.633Z,23.23
2023-04-16T11:09:56.336Z,18.35
2023-04-16T11:12:23.184Z,14.98
2023-04-16T11:14:51.054Z,13.45
2023-04-16T11:17:19.038Z,12.63
2023-04-16T11:19:46.570Z,12.02
2023-04-16T11:22:16.872Z,14.50
2023-04-16T11:24:47.577Z,13.23
2023-04-16T11:27:15.953Z,12.73
2023-04-16T11:29:44.619Z,14.35
2023-04-16T11:32:21.562Z,13.40
2023-04-16T11:37:15.257Z,16.80
2023-04-16T11:39:52.843Z,16.58
2023-04-16T11:42:22.583Z,16.13
2023-04-16T11:44:54.311Z,14.93
2023-04-16T11:47:22.068Z,14.57
2023-04-16T11:49:49.030Z,15.07
2023-04-16T11:52:31.893Z,15.93
2023-04-16T11:54:59.326Z,16.63
2023-04-16T11:57:30.934Z,15.65
2023-04-16T12:00:02.513Z,16.55
2023-04-16T12:02:44.074Z,16.65
2023-04-16T12:05:39.464Z,15.20
2023-04-16T12:08:08.258Z,14.27
2023-04-16T12:10:37.358Z,14.70
2023-04-16T12:13:14.547Z,14.52
2023-04-16T12:15:59.696Z,14.85
2023-04-16T12:18:27.160Z,15.60
2023-04-16T12:20:57.016Z,17.02
2023-04-16T12:23:50.936Z,15.90
2023-04-16T12:26:20.714Z,16.75
2023-04-16T12:28:48.422Z,18.05
2023-04-16T12:31:19.146Z,18.05
2023-04-16T12:34:02.489Z,20.02
2023-04-16T12:36:30.510Z,23.67
2023-04-16T12:38:57.094Z,21.88
2023-04-16T12:41:23.777Z,21.83
2023-04-16T12:43:50.534Z,23.20
2023-04-16T12:46:17.119Z,22.55
2023-04-16T12:48:43.917Z,23.27
2023-04-16T12:51:13.639Z,21.98
2023-04-16T12:53:43.007Z,23.95
2023-04-16T12:56:09.562Z,22.67
2023-04-16T12:58:41.692Z,23.95
2023-04-16T13:01:08.480Z,23.85
2023-04-16T13:03:37.268Z,22.77
2023-04-16T13:06:04.836Z,22.08
2023-04-16T13:08:31.607Z,20.98
2023-04-16T13:10:58.448Z,21.95
2023-04-16T13:13:28.520Z,20.38
2023-04-16T13:15:55.348Z,20.67
2023-04-16T13:18:23.137Z,19.58
2023-04-16T13:20:51.226Z,19.08
2023-04-16T13:23:18.015Z,18.48
2023-04-16T13:25:50.144Z,17.88
2023-04-16T13:28:17.553Z,17.38
2023-04-16T13:30:47.348Z,16.92
2023-04-16T13:33:20.833Z,17.27
2023-04-16T13:35:51.770Z,17.90
2023-04-16T13:38:23.608Z,17.52
2023-04-16T13:40:56.128Z,17.95
2023-04-16T13:43:22.933Z,17.77
2023-04-16T13:45:49.790Z,18.65
2023-04-16T13:48:17.782Z,19.15
2023-04-16T13:50:48.000Z,19.83
2023-04-16T13:53:14.752Z,20.10
2023-04-16T13:55:42.467Z,17.75
2023-04-16T13:58:09.473Z,17.70
2023-04-16T14:00:36.742Z,19.95
2023-04-16T14:03:07.770Z,18.40
2023-04-16T14:05:34.481Z,20.20
2023-04-16T14:08:01.182Z,18.33
2023-04-16T14:10:31.952Z,18.25
2023-04-16T14:12:58.969Z,17.67
2023-04-16T14:15:27.454Z,17.38
2023-04-16T14:17:57.021Z,18.15
2023-04-16T14:20:28.993Z,17.38
2023-04-16T14:22:56.060Z,16.23
2023-04-16T14:25:23.460Z,17.67
2023-04-16T14:27:52.905Z,19.30
2023-04-16T14:30:21.131Z,17.50
2023-04-16T14:32:47.859Z,18.15
2023-04-16T14:35:14.624Z,16.50
2023-04-16T14:37:42.665Z,18.00
2023-04-16T14:40:12.787Z,16.98
2023-04-16T14:42:39.739Z,17.45
2023-04-16T14:45:07.438Z,17.45
2023-04-16T14:47:34.728Z,17.48
2023-04-16T14:50:02.174Z,16.85
2023-04-16T14:52:32.513Z,16.70
2023-04-16T14:55:02.313Z,17.02
2023-04-16T14:57:31.750Z,18.25
2023-04-16T14:59:58.525Z,18.02
2023-04-16T15:02:30.854Z,15.77
2023-04-16T15:04:57.576Z,17.17
2023-04-16T15:07:26.129Z,17.27
2023-04-16T15:09:52.833Z,16.50
2023-04-16T15:12:19.789Z,14.05
2023-04-16T15:14:46.386Z,14.40
2023-04-16T15:17:13.022Z,13.45
2023-04-16T15:19:39.715Z,22.20
2023-04-16T15:22:06.930Z,14.43
2023-04-16T15:24:33.524Z,12.75
2023-04-16T15:27:02.157Z,12.73
2023-04-16T15:29:28.767Z,12.13
2023-04-16T15:31:55.903Z,12.00
2023-04-16T15:34:22.467Z,10.70
2023-04-16T15:36:49.132Z,11.73
2023-04-16T15:39:15.884Z,10.65
2023-04-16T15:41:57.444Z,9.93
2023-04-16T15:44:27.054Z,10.80
2023-04-16T15:46:53.793Z,10.98
2023-04-16T15:49:20.400Z,10.90
2023-04-16T15:51:47.034Z,10.95
2023-04-16T15:54:13.655Z,10.80
2023-04-16T15:56:40.623Z,11.57
2023-04-16T15:59:08.260Z,12.43
2023-04-16T16:01:35.040Z,11.73
2023-04-16T16:04:01.909Z,13.52
2023-04-16T16:06:28.880Z,13.25
2023-04-16T16:08:55.713Z,12.90
2023-04-16T16:11:22.448Z,12.45
2023-04-16T16:13:49.112Z,13.35
2023-04-16T16:16:16.121Z,13.82
2023-04-16T16:18:42.982Z,14.57
2023-04-16T16:21:09.978Z,13.55
2023-04-16T16:23:36.936Z,14.18
2023-04-16T16:26:06.117Z,15.85
2023-04-16T16:28:32.862Z,14.45
2023-04-16T16:31:01.224Z,14.70
2023-04-16T16:33:28.629Z,14.00
2023-04-16T16:35:55.386Z,14.10
2023-04-16T16:38:22.233Z,14.98
2023-04-16T16:40:48.874Z,14.88
2023-04-16T16:43:15.566Z,13.82
2023-04-16T16:45:42.168Z,14.05
2023-04-16T16:48:09.207Z,14.98
2023-04-16T16:50:35.919Z,14.70
2023-04-16T16:53:03.176Z,14.27
2023-04-16T16:55:30.001Z,15.27
2023-04-16T16:57:56.997Z,15.68
2023-04-16T17:00:23.872Z,15.38
2023-04-16T17:02:52.046Z,16.38
2023-04-16T17:05:19.104Z,15.48
2023-04-16T17:07:45.870Z,16.15
2023-04-16T17:10:20.104Z,15.52
2023-04-16T17:12:50.989Z,15.98
2023-04-16T17:15:19.782Z,16.35
2023-04-16T17:17:50.740Z,17.58
2023-04-16T17:20:17.468Z,17.80
2023-04-16T17:22:45.177Z,16.98
2023-04-16T17:25:15.010Z,18.35
2023-04-16T17:27:47.242Z,17.48
2023-04-16T17:30:14.560Z,17.30
2023-04-16T17:32:41.453Z,17.92
2023-04-16T17:35:13.655Z,18.17
2023-04-16T17:37:45.488Z,19.17
2023-04-16T17:40:20.449Z,18.33
2023-04-16T17:42:48.720Z,19.08
2023-04-16T17:45:18.925Z,19.13
2023-04-16T17:47:48.639Z,17.63
2023-04-16T17:50:15.385Z,19.58
2023-04-16T17:52:42.121Z,19.50
2023-04-16T17:55:12.858Z,19.92
2023-04-16T17:57:42.704Z,17.92
2023-04-16T18:00:14.400Z,21.30
2023-04-16T18:02:42.649Z,20.65
2023-04-16T18:05:09.729Z,19.75
2023-04-16T18:07:39.713Z,19.58
2023-04-16T18:10:07.411Z,19.77
2023-04-16T18:12:34.278Z,19.25
2023-04-16T18:15:05.909Z,20.48
2023-04-16T18:17:37.564Z,21.60
2023-04-16T18:20:06.962Z,19.30
2023-04-16T18:22:33.950Z,20.13
2023-04-16T18:25:00.806Z,20.33
2023-04-16T18:27:28.810Z,20.70
2023-04-16T18:29:55.743Z,20.45
2023-04-16T18:32:25.480Z,21.15
2023-04-16T18:34:52.392Z,22.58
2023-04-16T18:37:19.067Z,20.95
2023-04-16T18:39:45.668Z,20.73
2023-04-16T18:42:12.329Z,21.58
2023-04-16T18:44:38.947Z,22.42
2023-04-16T18:47:05.677Z,23.27
2023-04-16T18:49:34.755Z,25.90
2023-04-16T18:52:04.298Z,22.90
2023-04-16T18:54:31.111Z,22.23
2023-04-16T18:56:59.733Z,22.90
2023-04-16T18:59:27.456Z,22.70
2023-04-16T19:01:56.735Z,21.65
2023-04-16T19:04:23.594Z,22.45
2023-04-16T19:06:53.479Z,23.33
2023-04-16T19:09:22.703Z,21.98
2023-04-16T19:11:50.548Z,21.20
2023-04-16T19:14:20.609Z,20.80
2023-04-16T19:16:51.764Z,21.75
2023-04-16T19:19:18.446Z,21.98
2023-04-16T19:21:45.461Z,22.67
2023-04-16T19:24:14.709Z,21.92
2023-04-16T19:26:41.541Z,19.90
2023-04-16T19:29:10.640Z,20.40
2023-04-16T19:31:37.647Z,22.15
2023-04-16T19:34:04.459Z,21.55
2023-04-16T19:36:32.416Z,20.38
2023-04-16T19:38:59.554Z,22.85
2023-04-16T19:41:26.253Z,21.63
2023-04-16T19:43:55.730Z,21.60
2023-04-16T19:46:22.478Z,24.48
2023-04-16T19:48:52.362Z,22.92
2023-04-16T19:51:22.880Z,23.30
2023-04-16T19:53:49.608Z,22.33
2023-04-16T19:56:19.513Z,25.40
2023-04-16T19:58:46.395Z,24.23
2023-04-16T20:01:14.209Z,23.35
2023-04-16T20:03:42.685Z,22.85
2023-04-16T20:06:11.181Z,24.40
2023-04-16T20:08:38.009Z,22.58
2023-04-16T20:11:05.364Z,22.58
2023-04-16T20:13:31.981Z,22.23
2023-04-16T20:15:58.661Z,21.05
2023-04-16T20:18:28.027Z,22.30
2023-04-16T20:20:54.876Z,20.90
2023-04-16T20:23:21.528Z,23.33
2023-04-16T20:25:48.418Z,20.67
2023-04-16T20:28:16.292Z,22.50
2023-04-16T20:30:42.979Z,21.83
2023-04-16T20:33:09.813Z,23.42
2023-04-16T20:35:36.684Z,21.27
2023-04-16T20:38:03.292Z,22.20
2023-04-16T20:40:32.642Z,22.27
2023-04-16T20:43:02.222Z,21.55
2023-04-16T20:45:32.164Z,22.70
2023-04-16T20:48:02.264Z,22.10
2023-04-16T20:50:29.137Z,22.17
2023-04-16T20:52:56.238Z,23.08
2023-04-16T20:55:22.851Z,24.42
2023-04-16T20:57:49.528Z,22.50
2023-04-16T21:00:16.761Z,22.73
2023-04-16T21:02:43.897Z,23.67
2023-04-16T21:05:14.477Z,21.77
2023-04-16T21:07:41.824Z,21.70
2023-04-16T21:10:11.578Z,22.25
2023-04-16T21:12:38.308Z,22.75
2023-04-16T21:15:05.318Z,23.13
2023-04-16T21:17:31.978Z,22.17
2023-04-16T21:19:58.855Z,24.42
2023-04-16T21:22:25.572Z,22.80
2023-04-16T21:24:52.154Z,24.20
2023-04-16T21:27:18.905Z,21.38
2023-04-16T21:29:45.512Z,22.65
2023-04-16T21:32:12.127Z,23.67
2023-04-16T21:34:38.936Z,24.27
2023-04-16T21:37:05.738Z,23.27
2023-04-16T21:39:32.521Z,22.67
2023-04-16T21:41:59.056Z,21.77
2023-04-16T21:44:25.812Z,23.63
2023-04-16T21:46:52.706Z,21.85
2023-04-16T21:49:19.423Z,22.85
2023-04-16T21:51:46.221Z,22.55
2023-04-16T21:54:13.145Z,21.95
2023-04-16T21:56:39.875Z,21.70
2023-04-16T21:59:06.471Z,21.58
2023-04-16T22:01:33.532Z,20.95
2023-04-16T22:04:02.062Z,20.95
2023-04-16T22:06:28.723Z,21.02
2023-04-16T22:08:58.742Z,22.38
2023-04-16T22:11:25.623Z,20.83
2023-04-16T22:13:53.524Z,20.30
2023-04-16T22:16:20.275Z,19.48
2023-04-16T22:18:47.284Z,20.23
2023-04-16T22:21:14.126Z,19.08
2023-04-16T22:23:40.869Z,20.80
2023-04-16T22:26:08.936Z,19.10
2023-04-16T22:28:35.503Z,21.38
2023-04-16T22:31:02.273Z,20.13
2023-04-16T22:33:30.527Z,17.95
2023-04-16T22:35:57.076Z,19.20
2023-04-16T22:38:24.028Z,19.02
2023-04-16T22:40:50.638Z,18.08
2023-04-16T22:43:17.700Z,18.83
2023-04-16T22:45:46.030Z,18.48
2023-04-16T22:48:12.838Z,19.15
2023-04-16T22:50:40.530Z,18.83
2023-04-16T22:53:07.148Z,18.35
2023-04-16T22:55:33.903Z,19.50
2023-04-16T22:58:01.126Z,18.80
2023-04-16T23:00:28.373Z,20.13
2023-04-16T23:02:55.119Z,20.02
2023-04-16T23:05:21.886Z,21.15
2023-04-16T23:07:48.592Z,19.10
2023-04-16T23:10:15.841Z,20.60
2023-04-16T23:12:42.475Z,20.38
2023-04-16T23:15:09.510Z,18.38
2023-04-16T23:17:36.670Z,19.48
2023-04-16T23:20:05.307Z,18.92
2023-04-16T23:22:32.262Z,19.60
2023-04-16T23:24:58.858Z,19.58
2023-04-16T23:27:26.129Z,19.33
2023-04-16T23:29:52.699Z,21.50
2023-04-16T23:32:19.311Z,19.10
2023-04-16T23:34:46.242Z,20.02
2023-04-16T23:37:12.881Z,22.08
2023-04-16T23:39:39.830Z,19.52
2023-04-16T23:42:06.509Z,19.38
2023-04-16T23:44:33.177Z,18.95
2023-04-16T23:46:59.933Z,20.88
2023-04-16T23:49:26.540Z,20.48
2023-04-16T23:51:53.381Z,19.88
2023-04-16T23:54:20.967Z,20.13
2023-04-16T23:56:48.308Z,22.13
2023-04-16T23:59:14.900Z,20.88
